KELZ

Wellsville Municipal Arpt,tarantine Field Airport

Wellsville, New York, USA
METAR KELZ 201456Z AUTO 24015G21KT 10SM FEW022 FEW046 17/13 A3017 RMK AO2 PK WND 25029/1446 SLP218 T01720128 52004
Observed Flight Rules
Feb-20 @ 14:56 UTC (2 hours ago) Visual Flight Rules
Wind Visibility Clouds
240° at 15 knots
 Gusting to 21 knots
10 miles
  • Few at 2,200' AGL
  • Few at 4,600' AGL
Temperatures Readings
Current 17°C / 63°F
Dewpoint 13°C / 55°F
Humidity 77%
Altimeter 30.17" Hg
Pressure 1021.8 hPa
Elevation 646
METAR KELZ 201456Z AUTO 24015G21KT 10SM FEW022 FEW046 17/13 A3017 RMK AO2 PK WND 25029/1446 SLP218 T01720128 52004
Observed Flight Rules
Feb-20 @ 14:56 UTC
(2 hours ago)
VFR
Wind Visibility
240° at 15 knots
 Gusting to 21 knots
10 miles
Clouds
  • Few at 2,200' AGL
  • Few at 4,600' AGL
Temperature Dewpoint
17°C / 63°F 13°C / 55°F
Humidity Altimeter Pressure
77% 30.17" Hg 1021.8 hPa